createdAt,value
2016-08-25T00:00:15.189Z,0
2016-08-25T00:01:15.885Z,0
2016-08-25T00:02:15.867Z,0
2016-08-25T00:03:15.869Z,0
2016-08-25T00:04:15.864Z,0
2016-08-25T00:05:15.865Z,0
2016-08-25T00:06:14.588Z,0
2016-08-25T00:07:15.133Z,0
2016-08-25T00:08:15.128Z,0
2016-08-25T00:09:15.831Z,0
2016-08-25T00:10:15.828Z,0
2016-08-25T00:11:15.109Z,0
2016-08-25T00:12:15.808Z,0
2016-08-25T00:13:15.811Z,0
2016-08-25T00:14:15.848Z,0
2016-08-25T00:15:15.781Z,0
2016-08-25T00:16:15.781Z,0
2016-08-25T00:17:15.772Z,0
2016-08-25T00:18:15.773Z,0
2016-08-25T00:19:15.070Z,0
2016-08-25T00:20:15.067Z,0
2016-08-25T00:21:15.034Z,0
2016-08-25T00:22:16.464Z,0
2016-08-25T00:23:15.028Z,0
2016-08-25T00:24:14.307Z,0
2016-08-25T00:25:16.431Z,0
2016-08-25T00:26:15.003Z,0
2016-08-25T00:27:14.998Z,0
2016-08-25T00:28:14.994Z,0
2016-08-25T00:29:15.697Z,0
2016-08-25T00:30:16.401Z,0
2016-08-25T00:31:15.681Z,0
2016-08-25T00:32:16.378Z,0
2016-08-25T00:33:16.387Z,0
2016-08-25T00:34:14.957Z,0
2016-08-25T00:35:16.351Z,0
2016-08-25T00:36:15.668Z,0
2016-08-25T00:37:14.930Z,0
2016-08-25T00:38:14.929Z,0
2016-08-25T00:39:15.626Z,0
2016-08-25T00:40:15.633Z,0
2016-08-25T00:41:14.902Z,0
2016-08-25T00:42:15.609Z,0
2016-08-25T00:43:15.616Z,0
2016-08-25T00:44:14.885Z,0
2016-08-25T00:45:16.309Z,0
2016-08-25T00:46:14.870Z,0
2016-08-25T00:47:16.273Z,0
2016-08-25T00:48:16.272Z,0
2016-08-25T00:49:14.852Z,0
2016-08-25T00:50:15.554Z,0
2016-08-25T00:51:14.124Z,0
2016-08-25T00:52:16.462Z,0
2016-08-25T00:53:14.830Z,0
2016-08-25T00:54:14.808Z,0
2016-08-25T00:55:16.229Z,0
2016-08-25T00:56:16.419Z,0
2016-08-25T00:57:14.294Z,0
2016-08-25T00:58:15.500Z,0
2016-08-25T00:59:14.091Z,0
2016-08-25T01:00:15.479Z,0
2016-08-25T01:01:16.942Z,0
2016-08-25T01:02:16.890Z,0
2016-08-25T01:03:14.753Z,0
2016-08-25T01:04:15.465Z,0
2016-08-25T01:05:14.029Z,0
2016-08-25T01:06:16.910Z,0
2016-08-25T01:07:14.725Z,0
2016-08-25T01:08:15.444Z,0
2016-08-25T01:09:15.414Z,0
2016-08-25T01:10:15.403Z,0
2016-08-25T01:11:14.703Z,0
2016-08-25T01:12:16.105Z,0
2016-08-25T01:13:13.965Z,0
2016-08-25T01:14:16.085Z,0
2016-08-25T01:15:15.369Z,0
2016-08-25T01:16:16.067Z,0
2016-08-25T01:17:16.122Z,0
2016-08-25T01:18:14.638Z,0
2016-08-25T01:19:14.633Z,0
2016-08-25T01:20:16.056Z,0
2016-08-25T01:21:14.625Z,0
2016-08-25T01:22:15.320Z,0
2016-08-25T01:23:16.736Z,0
2016-08-25T01:24:14.589Z,0
2016-08-25T01:25:16.018Z,0
2016-08-25T01:26:15.289Z,0
2016-08-25T01:27:14.578Z,0
2016-08-25T01:28:15.981Z,0
2016-08-25T01:29:15.270Z,0
2016-08-25T01:30:14.566Z,0
2016-08-25T01:31:15.253Z,0
2016-08-25T01:32:15.247Z,0
2016-08-25T01:33:14.532Z,0
2016-08-25T01:34:14.536Z,0
2016-08-25T01:35:14.566Z,0
2016-08-25T01:36:13.813Z,0
2016-08-25T01:37:15.206Z,0
2016-08-25T01:38:14.503Z,0
2016-08-25T01:39:15.906Z,0
2016-08-25T01:40:15.894Z,0
2016-08-25T01:41:15.188Z,0
2016-08-25T01:42:15.891Z,0
2016-08-25T01:43:14.457Z,0
2016-08-25T01:44:15.862Z,0
2016-08-25T01:45:15.860Z,0
2016-08-25T01:46:15.858Z,0
2016-08-25T01:47:15.145Z,0
2016-08-25T01:48:14.418Z,0
2016-08-25T01:49:13.705Z,0
2016-08-25T01:50:15.118Z,0
2016-08-25T01:51:14.400Z,0
2016-08-25T01:52:15.115Z,0
2016-08-25T01:53:14.394Z,0
2016-08-25T01:54:15.794Z,0
2016-08-25T01:55:15.706Z,0
2016-08-25T01:56:15.068Z,0
2016-08-25T01:57:14.363Z,0
2016-08-25T01:58:14.347Z,0
2016-08-25T01:59:15.043Z,0
2016-08-25T02:00:15.755Z,0
2016-08-25T02:01:15.033Z,0
2016-08-25T02:02:14.321Z,0
2016-08-25T02:03:15.746Z,0
2016-08-25T02:04:14.303Z,0
2016-08-25T02:05:14.999Z,0
2016-08-25T02:06:14.300Z,0
2016-08-25T02:07:14.283Z,0
2016-08-25T02:08:14.280Z,0
2016-08-25T02:09:14.974Z,0
2016-08-25T02:10:16.390Z,0
2016-08-25T02:11:14.955Z,0
2016-08-25T02:12:14.950Z,0
2016-08-25T02:13:15.657Z,0
2016-08-25T02:14:14.933Z,0
2016-08-25T02:15:14.218Z,0
2016-08-25T02:16:14.221Z,0
2016-08-25T02:17:16.325Z,0
2016-08-25T02:18:15.605Z,0
2016-08-25T02:19:14.190Z,0
2016-08-25T02:20:14.182Z,0
2016-08-25T02:21:14.178Z,0
2016-08-25T02:22:14.877Z,0
2016-08-25T02:23:14.171Z,0
2016-08-25T02:24:14.858Z,0
2016-08-25T02:25:15.573Z,0
2016-08-25T02:26:16.251Z,0
2016-08-25T02:27:14.844Z,0
2016-08-25T02:28:14.832Z,0
2016-08-25T02:29:15.527Z,0
2016-08-25T02:30:14.120Z,0
2016-08-25T02:31:14.102Z,0
2016-08-25T02:32:15.496Z,0
2016-08-25T02:33:14.795Z,0
2016-08-25T02:34:14.792Z,0
2016-08-25T02:35:13.363Z,0
2016-08-25T02:36:14.070Z,0
2016-08-25T02:37:13.344Z,0
2016-08-25T02:38:14.057Z,0
2016-08-25T02:39:13.330Z,0
2016-08-25T02:40:15.444Z,0
2016-08-25T02:41:14.773Z,0
2016-08-25T02:42:14.719Z,0
2016-08-25T02:43:14.708Z,0
2016-08-25T02:44:13.995Z,0
2016-08-25T02:45:15.412Z,0
2016-08-25T02:46:14.711Z,0
2016-08-25T02:47:13.984Z,0
2016-08-25T02:48:13.965Z,0
2016-08-25T02:49:13.964Z,0
2016-08-25T02:50:15.369Z,0
2016-08-25T02:51:14.651Z,0
2016-08-25T02:52:14.651Z,0
2016-08-25T02:53:13.939Z,0
2016-08-25T02:54:14.628Z,0
2016-08-25T02:55:15.331Z,0
2016-08-25T02:56:14.621Z,0
2016-08-25T02:57:15.317Z,0
2016-08-25T02:58:15.306Z,0
2016-08-25T02:59:13.883Z,0
2016-08-25T03:00:14.599Z,0
2016-08-25T03:01:15.281Z,0
2016-08-25T03:02:14.562Z,0
2016-08-25T03:03:15.274Z,0
2016-08-25T03:04:15.966Z,0
2016-08-25T03:05:15.963Z,0
2016-08-25T03:06:13.838Z,0
2016-08-25T03:07:14.585Z,0
2016-08-25T03:08:13.808Z,0
2016-08-25T03:09:14.520Z,0
2016-08-25T03:10:14.521Z,0
2016-08-25T03:11:14.503Z,0
2016-08-25T03:12:13.823Z,0
2016-08-25T03:13:13.790Z,0
2016-08-25T03:14:14.508Z,0
2016-08-25T03:15:15.226Z,0
2016-08-25T03:16:13.756Z,0
2016-08-25T03:17:14.469Z,0
2016-08-25T03:18:14.453Z,0
2016-08-25T03:19:15.849Z,0
2016-08-25T03:20:14.427Z,0
2016-08-25T03:21:14.420Z,0
2016-08-25T03:22:14.411Z,0
2016-08-25T03:23:15.113Z,0
2016-08-25T03:24:13.685Z,0
2016-08-25T03:25:15.109Z,0
2016-08-25T03:26:15.084Z,0
2016-08-25T03:27:13.664Z,0
2016-08-25T03:28:13.663Z,0
2016-08-25T03:29:13.654Z,0
2016-08-25T03:30:14.356Z,0
2016-08-25T03:31:14.347Z,0
2016-08-25T03:32:12.920Z,0
2016-08-25T03:33:12.910Z,0
2016-08-25T03:34:15.741Z,0
2016-08-25T03:35:13.618Z,0
2016-08-25T03:36:13.598Z,0
2016-08-25T03:37:13.598Z,0
2016-08-25T03:38:13.582Z,0
2016-08-25T03:39:14.981Z,0
2016-08-25T03:40:14.284Z,0
2016-08-25T03:41:13.578Z,0
2016-08-25T03:42:14.257Z,0
2016-08-25T03:43:13.542Z,0
2016-08-25T03:44:14.239Z,0
2016-08-25T03:45:14.931Z,0
2016-08-25T03:46:13.515Z,0
2016-08-25T03:47:14.215Z,0
2016-08-25T03:48:14.199Z,0
2016-08-25T03:49:12.785Z,0
2016-08-25T03:50:12.781Z,0
2016-08-25T03:51:14.176Z,0
2016-08-25T03:52:13.476Z,0
2016-08-25T03:53:14.174Z,0
2016-08-25T03:54:13.451Z,0
2016-08-25T03:55:14.760Z,0
2016-08-25T03:56:14.144Z,0
2016-08-25T03:57:14.130Z,0
2016-08-25T03:58:14.840Z,0
2016-08-25T03:59:14.830Z,0
2016-08-25T04:00:13.403Z,0
2016-08-25T04:01:13.404Z,0
2016-08-25T04:02:14.119Z,0
2016-08-25T04:03:12.682Z,0
2016-08-25T04:04:13.389Z,0
2016-08-25T04:05:13.365Z,0
2016-08-25T04:06:14.774Z,0
2016-08-25T04:07:14.058Z,0
2016-08-25T04:08:12.632Z,0
2016-08-25T04:09:15.457Z,0
2016-08-25T04:10:15.467Z,0
2016-08-25T04:11:14.027Z,0
2016-08-25T04:12:14.011Z,0
2016-08-25T04:13:13.305Z,0
2016-08-25T04:14:13.996Z,0
2016-08-25T04:15:13.987Z,0
2016-08-25T04:16:13.297Z,0
2016-08-25T04:17:14.686Z,0
2016-08-25T04:18:13.313Z,0
2016-08-25T04:19:13.258Z,0
2016-08-25T04:20:13.949Z,0
2016-08-25T04:21:13.946Z,0
2016-08-25T04:22:13.229Z,0
2016-08-25T04:23:13.223Z,0
2016-08-25T04:24:13.211Z,0
2016-08-25T04:25:13.922Z,0
2016-08-25T04:26:14.627Z,0
2016-08-25T04:27:14.613Z,0
2016-08-25T04:28:13.179Z,0
2016-08-25T04:29:13.886Z,0
2016-08-25T04:30:13.170Z,0
2016-08-25T04:31:13.865Z,0
2016-08-25T04:32:12.456Z,5
2016-08-25T04:33:12.439Z,5
2016-08-25T04:34:12.468Z,5
2016-08-25T04:35:14.684Z,5
2016-08-25T04:36:13.852Z,5
2016-08-25T04:37:13.838Z,5
2016-08-25T04:38:13.173Z,5
2016-08-25T04:39:13.822Z,5
2016-08-25T04:40:13.081Z,5
2016-08-25T04:41:13.080Z,5
2016-08-25T04:42:13.774Z,10
2016-08-25T04:43:13.058Z,10
2016-08-25T04:44:13.765Z,10
2016-08-25T04:45:13.047Z,10
2016-08-25T04:46:14.470Z,10
2016-08-25T04:47:13.125Z,10
2016-08-25T04:48:13.021Z,10
2016-08-25T04:49:12.308Z,10
2016-08-25T04:50:12.303Z,10
2016-08-25T04:51:12.997Z,15
2016-08-25T04:52:12.281Z,15
2016-08-25T04:53:12.984Z,15
2016-08-25T04:54:12.993Z,15
2016-08-25T04:55:12.972Z,15
2016-08-25T04:56:12.259Z,15
2016-08-25T04:57:12.951Z,15
2016-08-25T04:58:12.236Z,15
2016-08-25T04:59:13.652Z,20
2016-08-25T05:00:12.930Z,20
2016-08-25T05:01:12.213Z,20
2016-08-25T05:02:13.625Z,20
2016-08-25T05:03:12.909Z,20
2016-08-25T05:04:12.898Z,20
2016-08-25T05:05:13.600Z,20
2016-08-25T05:06:12.885Z,20
2016-08-25T05:07:12.888Z,25
2016-08-25T05:08:14.289Z,25
2016-08-25T05:09:12.147Z,25
2016-08-25T05:10:12.844Z,25
2016-08-25T05:11:13.550Z,25
2016-08-25T05:12:12.829Z,25
2016-08-25T05:13:12.931Z,25
2016-08-25T05:14:12.810Z,25
2016-08-25T05:15:12.099Z,30
2016-08-25T05:16:12.799Z,30
2016-08-25T05:17:13.510Z,30
2016-08-25T05:18:12.776Z,30
2016-08-25T05:19:13.487Z,30
2016-08-25T05:20:12.066Z,30
2016-08-25T05:21:12.758Z,30
2016-08-25T05:22:12.752Z,30
2016-08-25T05:23:12.793Z,30
2016-08-25T05:24:14.194Z,30
2016-08-25T05:25:12.029Z,35
2016-08-25T05:26:12.734Z,35
2016-08-25T05:27:13.414Z,35
2016-08-25T05:28:12.725Z,35
2016-08-25T05:29:13.404Z,35
2016-08-25T05:30:12.028Z,35
2016-08-25T05:31:13.398Z,35
2016-08-25T05:32:11.968Z,35
2016-08-25T05:33:13.427Z,35
2016-08-25T05:34:13.377Z,35
2016-08-25T05:35:11.954Z,40
2016-08-25T05:36:12.643Z,40
2016-08-25T05:37:13.344Z,40
2016-08-25T05:38:12.627Z,40
2016-08-25T05:39:12.623Z,40
2016-08-25T05:40:14.036Z,40
2016-08-25T05:41:14.038Z,40
2016-08-25T05:42:13.304Z,40
2016-08-25T05:43:12.599Z,40
2016-08-25T05:44:13.296Z,40
2016-08-25T05:45:14.006Z,40
2016-08-25T05:46:14.005Z,40
2016-08-25T05:47:13.976Z,40
2016-08-25T05:48:13.268Z,45
2016-08-25T05:49:13.958Z,45
2016-08-25T05:50:12.536Z,45
2016-08-25T05:51:12.526Z,45
2016-08-25T05:52:12.513Z,45
2016-08-25T05:53:13.932Z,45
2016-08-25T05:54:12.510Z,45
2016-08-25T05:55:13.199Z,45
2016-08-25T05:56:13.411Z,45
2016-08-25T05:57:13.190Z,45
2016-08-25T05:58:13.177Z,45
2016-08-25T05:59:13.175Z,45
2016-08-25T06:00:13.182Z,45
2016-08-25T06:01:13.866Z,45
2016-08-25T06:02:13.156Z,50
2016-08-25T06:03:14.567Z,50
2016-08-25T06:04:13.145Z,50
2016-08-25T06:05:11.713Z,50
2016-08-25T06:06:13.127Z,50
2016-08-25T06:07:12.412Z,50
2016-08-25T06:08:13.105Z,50
2016-08-25T06:09:12.394Z,50
2016-08-25T06:10:12.380Z,50
2016-08-25T06:11:13.080Z,50
2016-08-25T06:12:13.078Z,50
2016-08-25T06:13:13.066Z,50
2016-08-25T06:14:11.647Z,50
2016-08-25T06:15:12.378Z,50
2016-08-25T06:16:13.764Z,50
2016-08-25T06:17:12.326Z,50
2016-08-25T06:18:13.032Z,55
2016-08-25T06:19:13.032Z,50
2016-08-25T06:20:13.015Z,55
2016-08-25T06:21:13.014Z,55
2016-08-25T06:22:12.352Z,55
2016-08-25T06:23:12.998Z,55
2016-08-25T06:24:12.289Z,55
2016-08-25T06:25:14.405Z,55
2016-08-25T06:26:12.268Z,55
2016-08-25T06:27:12.975Z,55
2016-08-25T06:28:12.985Z,55
2016-08-25T06:29:12.956Z,55
2016-08-25T06:30:12.241Z,55
2016-08-25T06:31:13.651Z,55
2016-08-25T06:32:12.229Z,55
2016-08-25T06:33:12.925Z,55
2016-08-25T06:34:12.215Z,55
2016-08-25T06:35:13.621Z,55
2016-08-25T06:36:13.605Z,60
2016-08-25T06:37:12.198Z,60
2016-08-25T06:38:12.895Z,60
2016-08-25T06:39:12.169Z,60
2016-08-25T06:40:12.876Z,60
2016-08-25T06:41:12.160Z,60
2016-08-25T06:42:12.149Z,60
2016-08-25T06:43:12.860Z,60
2016-08-25T06:44:12.855Z,60
2016-08-25T06:45:12.844Z,60
2016-08-25T06:46:13.541Z,60
2016-08-25T06:47:11.410Z,60
2016-08-25T06:48:12.113Z,60
2016-08-25T06:49:12.113Z,60
2016-08-25T06:50:12.102Z,60
2016-08-25T06:51:12.799Z,60
2016-08-25T06:52:12.796Z,60
2016-08-25T06:53:11.378Z,60
2016-08-25T06:54:12.082Z,60
2016-08-25T06:55:12.072Z,60
2016-08-25T06:56:11.354Z,65
2016-08-25T06:57:12.762Z,65
2016-08-25T06:58:13.466Z,65
2016-08-25T06:59:11.336Z,65
2016-08-25T07:00:12.030Z,65
2016-08-25T07:01:12.734Z,65
2016-08-25T07:02:11.318Z,65
2016-08-25T07:03:12.717Z,65
2016-08-25T07:04:11.305Z,65
2016-08-25T07:05:12.010Z,65
2016-08-25T07:06:11.282Z,65
2016-08-25T07:07:13.399Z,65
2016-08-25T07:08:11.977Z,65
2016-08-25T07:09:11.278Z,65
2016-08-25T07:10:12.679Z,65
2016-08-25T07:11:11.957Z,65
2016-08-25T07:12:13.359Z,65
2016-08-25T07:13:11.961Z,65
2016-08-25T07:14:13.362Z,65
2016-08-25T07:15:11.933Z,65
2016-08-25T07:16:14.053Z,65
2016-08-25T07:17:13.336Z,65
2016-08-25T07:18:12.663Z,65
2016-08-25T07:19:13.335Z,65
2016-08-25T07:20:11.901Z,70
2016-08-25T07:21:12.597Z,70
2016-08-25T07:22:11.204Z,70
2016-08-25T07:23:12.595Z,70
2016-08-25T07:24:11.169Z,70
2016-08-25T07:25:12.584Z,70
2016-08-25T07:26:11.863Z,70
2016-08-25T07:27:12.564Z,70
2016-08-25T07:28:11.864Z,70
2016-08-25T07:29:11.140Z,70
2016-08-25T07:30:13.251Z,70
2016-08-25T07:31:11.838Z,70
2016-08-25T07:32:12.544Z,70
2016-08-25T07:33:11.838Z,70
2016-08-25T07:34:11.821Z,70
2016-08-25T07:35:11.814Z,70
2016-08-25T07:36:11.811Z,70
2016-08-25T07:37:11.803Z,70
2016-08-25T07:38:11.795Z,70
2016-08-25T07:39:12.494Z,70
2016-08-25T07:40:11.779Z,70
2016-08-25T07:41:11.974Z,75
2016-08-25T07:42:12.483Z,75
2016-08-25T07:43:11.753Z,75
2016-08-25T07:44:11.054Z,75
2016-08-25T07:45:11.751Z,75
2016-08-25T07:46:11.737Z,75
2016-08-25T07:47:13.153Z,75
2016-08-25T07:48:11.032Z,75
2016-08-25T07:49:13.142Z,75
2016-08-25T07:50:11.731Z,75
2016-08-25T07:51:11.008Z,75
2016-08-25T07:52:12.439Z,75
2016-08-25T07:53:11.723Z,75
2016-08-25T07:54:12.416Z,75
2016-08-25T07:55:12.404Z,75
2016-08-25T07:56:11.890Z,75
2016-08-25T07:57:11.683Z,75
2016-08-25T07:58:11.672Z,75
2016-08-25T07:59:12.605Z,75
2016-08-25T08:00:11.664Z,75
2016-08-25T08:01:13.067Z,75
2016-08-25T08:02:11.652Z,80
2016-08-25T08:03:12.368Z,80
2016-08-25T08:04:10.941Z,80
2016-08-25T08:05:11.634Z,85
2016-08-25T08:06:11.633Z,85
2016-08-25T08:07:11.619Z,90
2016-08-25T08:08:12.341Z,90
2016-08-25T08:09:13.038Z,90
2016-08-25T08:10:10.901Z,90
2016-08-25T08:11:10.913Z,90
2016-08-25T08:12:12.313Z,95
2016-08-25T08:13:12.299Z,95
2016-08-25T08:14:10.882Z,485
2016-08-25T08:15:12.297Z,1285
2016-08-25T08:16:11.571Z,1445
2016-08-25T08:17:11.569Z,1310
2016-08-25T08:18:11.577Z,1285
2016-08-25T08:19:10.864Z,1260
2016-08-25T08:20:11.557Z,605
2016-08-25T08:21:11.553Z,265
2016-08-25T08:22:11.559Z,185
2016-08-25T08:23:12.258Z,130
2016-08-25T08:24:11.542Z,140
2016-08-25T08:25:12.257Z,140
2016-08-25T08:26:12.240Z,150
2016-08-25T08:27:12.231Z,155
2016-08-25T08:28:12.939Z,175
2016-08-25T08:29:10.813Z,265
2016-08-25T08:30:12.218Z,405
2016-08-25T08:31:11.511Z,785
2016-08-25T08:32:10.797Z,975
2016-08-25T08:33:11.506Z,990
2016-08-25T08:34:11.496Z,835
2016-08-25T08:35:11.491Z,840
2016-08-25T08:36:12.193Z,775
2016-08-25T08:37:11.487Z,540
2016-08-25T08:38:12.181Z,380
2016-08-25T08:39:10.772Z,685
2016-08-25T08:40:12.890Z,650
2016-08-25T08:41:11.475Z,625
2016-08-25T08:42:12.880Z,235
2016-08-25T08:43:11.463Z,250
2016-08-25T08:44:11.460Z,105
2016-08-25T08:45:11.454Z,180
2016-08-25T08:46:12.158Z,100
2016-08-25T08:47:11.454Z,110
2016-08-25T08:48:12.153Z,110
2016-08-25T08:49:13.593Z,105
2016-08-25T08:50:12.860Z,95
2016-08-25T08:51:11.452Z,95
2016-08-25T08:52:12.848Z,95
2016-08-25T08:53:12.138Z,100
2016-08-25T08:54:11.422Z,105
2016-08-25T08:55:10.764Z,110
2016-08-25T08:56:11.427Z,110
2016-08-25T08:57:12.119Z,105
2016-08-25T08:58:11.410Z,100
2016-08-25T08:59:12.113Z,95
2016-08-25T09:00:12.104Z,95
2016-08-25T09:01:10.691Z,100
2016-08-25T09:02:11.417Z,100
2016-08-25T09:03:10.676Z,90
2016-08-25T09:04:11.388Z,90
2016-08-25T09:05:12.086Z,100
2016-08-25T09:06:12.078Z,130
2016-08-25T09:07:10.688Z,140
2016-08-25T09:08:12.082Z,245
2016-08-25T09:09:12.084Z,330
2016-08-25T09:10:11.362Z,415
2016-08-25T09:11:12.064Z,335
2016-08-25T09:12:11.355Z,260
2016-08-25T09:13:12.769Z,320
2016-08-25T09:14:12.769Z,250
2016-08-25T09:15:13.487Z,115
2016-08-25T09:16:11.344Z,185
2016-08-25T09:17:11.345Z,260
2016-08-25T09:18:12.035Z,375
2016-08-25T09:19:11.331Z,210
2016-08-25T09:20:10.618Z,115
2016-08-25T09:21:12.973Z,170
2016-08-25T09:22:11.318Z,130
2016-08-25T09:23:11.311Z,105
2016-08-25T09:24:12.008Z,110
2016-08-25T09:25:12.054Z,110
2016-08-25T09:26:12.025Z,120
2016-08-25T09:27:12.718Z,115
2016-08-25T09:28:12.011Z,130
2016-08-25T09:29:12.769Z,150
2016-08-25T09:30:12.032Z,120
2016-08-25T09:31:10.569Z,100
2016-08-25T09:32:11.988Z,115
2016-08-25T09:33:10.567Z,140
2016-08-25T09:34:11.977Z,140
2016-08-25T09:35:12.689Z,200
2016-08-25T09:36:12.684Z,125
2016-08-25T09:37:11.974Z,105
2016-08-25T09:38:11.948Z,95
2016-08-25T09:39:11.292Z,95
2016-08-25T09:40:11.240Z,95
2016-08-25T09:41:11.237Z,95
2016-08-25T09:42:11.230Z,95
2016-08-25T09:43:12.719Z,95
2016-08-25T09:44:11.934Z,95
2016-08-25T09:45:11.228Z,95
2016-08-25T09:46:11.981Z,100
2016-08-25T09:47:11.221Z,95
2016-08-25T09:48:11.260Z,100
2016-08-25T09:49:13.345Z,95
2016-08-25T09:50:11.960Z,95
2016-08-25T09:51:11.198Z,100
2016-08-25T09:52:11.187Z,95
2016-08-25T09:53:11.893Z,95
2016-08-25T09:54:11.898Z,95
2016-08-25T09:55:12.597Z,95
2016-08-25T09:56:12.806Z,100
2016-08-25T09:57:11.879Z,100
2016-08-25T09:58:11.162Z,100
2016-08-25T09:59:11.169Z,105
2016-08-25T10:00:12.623Z,115
2016-08-25T10:01:11.859Z,130
2016-08-25T10:02:11.151Z,270
2016-08-25T10:03:11.849Z,185
2016-08-25T10:04:11.840Z,140
2016-08-25T10:05:11.846Z,100
2016-08-25T10:06:11.137Z,100
2016-08-25T10:07:12.549Z,110
2016-08-25T10:08:11.838Z,100
2016-08-25T10:09:11.118Z,100
2016-08-25T10:10:11.828Z,100
2016-08-25T10:11:11.816Z,100
2016-08-25T10:12:11.807Z,105
2016-08-25T10:13:11.834Z,105
2016-08-25T10:14:11.101Z,110
2016-08-25T10:15:11.103Z,145
2016-08-25T10:16:10.383Z,180
2016-08-25T10:17:11.843Z,205
2016-08-25T10:18:11.080Z,170
2016-08-25T10:19:11.839Z,125
2016-08-25T10:20:10.363Z,115
2016-08-25T10:21:11.788Z,125
2016-08-25T10:22:11.795Z,115
2016-08-25T10:23:11.059Z,125
2016-08-25T10:24:11.775Z,140
2016-08-25T10:25:11.061Z,155
2016-08-25T10:26:11.755Z,295
2016-08-25T10:27:11.052Z,230
2016-08-25T10:28:11.758Z,190
2016-08-25T10:29:11.065Z,200
2016-08-25T10:30:10.330Z,145
2016-08-25T10:31:10.321Z,135
2016-08-25T10:32:10.332Z,150
2016-08-25T10:33:11.018Z,155
2016-08-25T10:34:11.728Z,180
2016-08-25T10:35:12.438Z,195
2016-08-25T10:36:11.033Z,240
2016-08-25T10:37:13.139Z,445
2016-08-25T10:38:12.475Z,380
2016-08-25T10:39:11.720Z,215
2016-08-25T10:40:11.738Z,215
2016-08-25T10:41:10.376Z,605
2016-08-25T10:42:10.290Z,230
2016-08-25T10:43:10.978Z,300
2016-08-25T10:44:11.681Z,225
2016-08-25T10:45:12.390Z,235
2016-08-25T10:46:10.971Z,335
2016-08-25T10:47:12.380Z,305
2016-08-25T10:48:11.681Z,370
2016-08-25T10:49:10.264Z,460
2016-08-25T10:50:12.376Z,375
2016-08-25T10:51:10.249Z,250
2016-08-25T10:52:10.244Z,230
2016-08-25T10:53:10.971Z,235
2016-08-25T10:54:12.357Z,640
2016-08-25T10:55:10.233Z,615
2016-08-25T10:56:10.936Z,945
2016-08-25T10:57:11.662Z,1110
2016-08-25T10:58:10.935Z,750
2016-08-25T10:59:11.644Z,625
2016-08-25T11:00:11.631Z,575
2016-08-25T11:01:11.648Z,905
2016-08-25T11:02:10.933Z,1160
2016-08-25T11:03:11.628Z,915
2016-08-25T11:04:10.922Z,760
2016-08-25T11:05:11.637Z,360
2016-08-25T11:06:11.626Z,605
2016-08-25T11:07:10.208Z,1060
2016-08-25T11:08:11.636Z,1070
2016-08-25T11:09:10.204Z,1490
2016-08-25T11:10:12.324Z,1960
2016-08-25T11:11:11.622Z,1950
2016-08-25T11:12:10.914Z,1930
2016-08-25T11:13:11.616Z,1925
2016-08-25T11:14:10.211Z,2050
2016-08-25T11:15:11.624Z,2035
2016-08-25T11:16:10.207Z,2060
2016-08-25T11:17:10.217Z,2065
2016-08-25T11:18:10.222Z,2040
2016-08-25T11:19:10.931Z,2085
2016-08-25T11:20:10.231Z,2140
2016-08-25T11:21:11.654Z,2165
2016-08-25T11:22:11.648Z,2125
2016-08-25T11:23:11.645Z,2080
2016-08-25T11:24:10.288Z,2060
2016-08-25T11:25:12.363Z,2085
2016-08-25T11:26:10.944Z,2105
2016-08-25T11:27:10.995Z,2085
2016-08-25T11:28:12.397Z,2065
2016-08-25T11:29:12.389Z,2075
2016-08-25T11:30:11.693Z,2115
2016-08-25T11:31:10.971Z,2065
2016-08-25T11:32:11.680Z,1935
2016-08-25T11:33:11.689Z,1785
2016-08-25T11:34:11.003Z,1695
2016-08-25T11:35:13.131Z,1765
2016-08-25T11:36:11.720Z,1905
2016-08-25T11:37:11.020Z,2020
2016-08-25T11:38:11.014Z,2095
2016-08-25T11:39:12.430Z,2145
2016-08-25T11:40:12.455Z,2155
2016-08-25T11:41:12.456Z,2165
2016-08-25T11:42:12.452Z,2275
2016-08-25T11:43:11.754Z,2375
2016-08-25T11:44:11.756Z,2430
2016-08-25T11:46:11.073Z,2360
2016-08-25T11:47:10.368Z,2325
2016-08-25T11:48:11.082Z,2355
2016-08-25T11:49:11.805Z,2375
2016-08-25T11:50:11.825Z,2360
2016-08-25T11:51:10.406Z,2330
2016-08-25T11:52:11.119Z,2295
2016-08-25T11:53:10.422Z,2305
2016-08-25T11:54:11.144Z,2290
2016-08-25T11:55:11.128Z,2240
2016-08-25T11:56:11.354Z,2215
2016-08-25T11:57:10.448Z,2250
2016-08-25T11:58:10.456Z,2285
2016-08-25T11:59:10.467Z,2335
2016-08-25T12:00:11.886Z,2320
2016-08-25T12:01:10.473Z,2315
2016-08-25T12:02:11.197Z,2300
2016-08-25T12:03:10.498Z,2305
2016-08-25T12:04:10.505Z,2305
2016-08-25T12:05:11.217Z,2305
2016-08-25T12:06:11.239Z,2300
2016-08-25T12:07:11.246Z,2320
2016-08-25T12:08:11.250Z,2290
2016-08-25T12:09:10.571Z,2260
2016-08-25T12:10:11.975Z,2265
2016-08-25T12:11:11.277Z,2260
2016-08-25T12:12:12.714Z,2275
2016-08-25T12:13:10.599Z,2310
2016-08-25T12:14:10.605Z,2345
2016-08-25T12:15:12.030Z,2360
2016-08-25T12:16:12.741Z,2340
2016-08-25T12:17:10.651Z,2340
2016-08-25T12:18:11.350Z,2335
2016-08-25T12:19:12.082Z,2295
2016-08-25T12:20:11.353Z,2225
2016-08-25T12:21:11.379Z,2195
2016-08-25T12:22:10.680Z,2220
2016-08-25T12:23:12.104Z,2265
2016-08-25T12:24:10.703Z,2250
2016-08-25T12:25:10.721Z,2170
2016-08-25T12:26:11.440Z,1995
2016-08-25T12:27:12.137Z,1820
2016-08-25T12:28:12.138Z,1765
2016-08-25T12:29:11.447Z,1895
2016-08-25T12:30:11.459Z,2095
2016-08-25T12:31:11.465Z,2245
2016-08-25T12:32:10.764Z,2325
2016-08-25T12:33:12.186Z,2355
2016-08-25T12:34:10.842Z,2385
2016-08-25T12:35:11.505Z,2385
2016-08-25T12:36:12.213Z,2315
2016-08-25T12:37:11.523Z,2270
2016-08-25T12:38:11.534Z,2340
2016-08-25T12:39:11.553Z,2420
2016-08-25T12:40:11.578Z,2395
2016-08-25T12:41:11.562Z,2295
2016-08-25T12:42:10.860Z,2220
2016-08-25T12:43:11.586Z,2200
2016-08-25T12:44:11.594Z,2225
2016-08-25T12:45:12.302Z,2235
2016-08-25T12:46:10.906Z,2205
2016-08-25T12:47:10.913Z,2175
2016-08-25T12:48:11.626Z,2140
2016-08-25T12:49:11.639Z,2140
2016-08-25T12:50:11.698Z,2145
2016-08-25T12:51:10.954Z,2150
2016-08-25T12:52:10.956Z,2135
2016-08-25T12:53:10.975Z,2125
2016-08-25T12:54:11.694Z,2105
2016-08-25T12:55:12.412Z,2095
2016-08-25T12:56:11.052Z,2115
2016-08-25T12:57:11.720Z,2150
2016-08-25T12:58:11.023Z,2130
2016-08-25T12:59:11.037Z,2045
2016-08-25T13:00:11.039Z,2010
2016-08-25T13:01:11.762Z,2075
2016-08-25T13:02:11.065Z,2165
2016-08-25T13:03:11.835Z,2220
2016-08-25T13:04:11.792Z,2225
2016-08-25T13:05:11.801Z,2175
2016-08-25T13:06:11.810Z,2115
2016-08-25T13:07:11.112Z,2075
2016-08-25T13:08:11.834Z,2055
2016-08-25T13:09:11.840Z,2040
2016-08-25T13:10:11.131Z,2040
2016-08-25T13:11:12.564Z,2065
2016-08-25T13:12:11.864Z,2065
2016-08-25T13:13:11.869Z,2065
2016-08-25T13:14:11.912Z,2065
2016-08-25T13:15:12.608Z,2050
2016-08-25T13:16:11.185Z,2030
2016-08-25T13:17:11.210Z,1995
2016-08-25T13:18:11.219Z,1960
2016-08-25T13:19:11.935Z,1940
2016-08-25T13:20:11.225Z,1930
2016-08-25T13:21:11.242Z,1895
2016-08-25T13:22:11.965Z,1870
2016-08-25T13:23:11.963Z,1850
2016-08-25T13:24:11.268Z,1825
2016-08-25T13:25:11.278Z,1820
2016-08-25T13:26:11.987Z,1815
2016-08-25T13:27:12.007Z,1825
2016-08-25T13:28:12.012Z,1810
2016-08-25T13:29:12.723Z,1800
2016-08-25T13:30:12.027Z,1800
2016-08-25T13:31:12.034Z,1775
2016-08-25T13:32:11.334Z,1740
2016-08-25T13:33:12.057Z,1735
2016-08-25T13:34:11.364Z,1745
2016-08-25T13:35:11.367Z,1760
2016-08-25T13:36:11.367Z,1775
2016-08-25T13:37:12.105Z,1800
2016-08-25T13:38:12.105Z,1825
2016-08-25T13:39:12.106Z,1820
2016-08-25T13:40:12.831Z,1800
2016-08-25T13:41:12.123Z,1745
2016-08-25T13:42:11.417Z,1680
2016-08-25T13:43:11.429Z,1675
2016-08-25T13:44:12.156Z,1720
2016-08-25T13:45:11.454Z,1750
2016-08-25T13:46:11.453Z,1725
2016-08-25T13:47:11.462Z,1695
2016-08-25T13:48:12.177Z,1685
2016-08-25T13:49:11.478Z,1700
2016-08-25T13:50:11.491Z,1705
2016-08-25T13:51:11.496Z,1700
2016-08-25T13:52:12.251Z,1695
2016-08-25T13:53:11.508Z,1705
2016-08-25T13:54:12.243Z,1710
2016-08-25T13:55:11.529Z,1710
2016-08-25T13:56:11.739Z,1685
2016-08-25T13:57:12.252Z,1660
2016-08-25T13:58:11.552Z,1625
2016-08-25T13:59:11.563Z,1595
2016-08-25T14:00:12.272Z,1570
2016-08-25T14:01:11.627Z,1585
2016-08-25T14:02:11.588Z,1600
2016-08-25T14:03:11.586Z,1610
2016-08-25T14:04:13.014Z,1615
2016-08-25T14:05:12.326Z,1650
2016-08-25T14:06:11.613Z,1670
2016-08-25T14:07:12.325Z,1635
2016-08-25T14:08:11.682Z,1605